sensor_id;sensor_type;location;lat;lon;timestamp;P1;durP1;ratioP1;P2;durP2;ratioP2
49444;SDS011;35323;43.080;-81.378;2023-04-03T00:00:55;1.25;;;0.73;;
49444;SDS011;35323;43.080;-81.378;2023-04-03T00:03:23;1.67;;;0.60;;
49444;SDS011;35323;43.080;-81.378;2023-04-03T00:05:51;0.60;;;0.55;;
49444;SDS011;35323;43.080;-81.378;2023-04-03T00:08:18;0.85;;;0.80;;
49444;SDS011;35323;43.080;-81.378;2023-04-03T00:10:46;0.70;;;0.70;;
49444;SDS011;35323;43.080;-81.378;2023-04-03T00:13:14;1.60;;;0.60;;
49444;SDS011;35323;43.080;-81.378;2023-04-03T00:15:42;1.70;;;1.15;;
49444;SDS011;35323;43.080;-81.378;2023-04-03T00:18:09;2.67;;;1.30;;
49444;SDS011;35323;43.080;-81.378;2023-04-03T00:20:37;0.77;;;0.77;;
49444;SDS011;35323;43.080;-81.378;2023-04-03T00:23:05;0.60;;;0.60;;
49444;SDS011;35323;43.080;-81.378;2023-04-03T00:25:33;1.15;;;0.80;;
49444;SDS011;35323;43.080;-81.378;2023-04-03T00:28:00;1.23;;;0.85;;
49444;SDS011;35323;43.080;-81.378;2023-04-03T00:30:28;0.65;;;0.65;;
49444;SDS011;35323;43.080;-81.378;2023-04-03T00:32:55;0.57;;;0.57;;
49444;SDS011;35323;43.080;-81.378;2023-04-03T00:35:23;1.63;;;0.80;;
49444;SDS011;35323;43.080;-81.378;2023-04-03T00:37:51;1.80;;;1.65;;
49444;SDS011;35323;43.080;-81.378;2023-04-03T00:40:21;1.17;;;1.08;;
49444;SDS011;35323;43.080;-81.378;2023-04-03T00:42:50;1.27;;;0.90;;
49444;SDS011;35323;43.080;-81.378;2023-04-03T00:47:50;1.40;;;1.30;;
49444;SDS011;35323;43.080;-81.378;2023-04-03T00:50:18;2.80;;;1.05;;
49444;SDS011;35323;43.080;-81.378;2023-04-03T00:52:47;1.13;;;0.80;;
49444;SDS011;35323;43.080;-81.378;2023-04-03T00:55:16;0.93;;;0.93;;
49444;SDS011;35323;43.080;-81.378;2023-04-03T00:57:43;1.48;;;0.90;;
49444;SDS011;35323;43.080;-81.378;2023-04-03T01:00:14;0.80;;;0.80;;
49444;SDS011;35323;43.080;-81.378;2023-04-03T01:02:43;0.90;;;0.90;;
49444;SDS011;35323;43.080;-81.378;2023-04-03T01:05:11;0.80;;;0.80;;
49444;SDS011;35323;43.080;-81.378;2023-04-03T01:07:39;1.25;;;1.05;;
49444;SDS011;35323;43.080;-81.378;2023-04-03T01:10:09;0.73;;;0.70;;
49444;SDS011;35323;43.080;-81.378;2023-04-03T01:12:37;1.00;;;0.93;;
49444;SDS011;35323;43.080;-81.378;2023-04-03T01:15:07;0.95;;;0.93;;
49444;SDS011;35323;43.080;-81.378;2023-04-03T01:22:35;1.33;;;1.23;;
49444;SDS011;35323;43.080;-81.378;2023-04-03T01:25:08;0.60;;;0.60;;
49444;SDS011;35323;43.080;-81.378;2023-04-03T01:27:36;3.00;;;1.02;;
49444;SDS011;35323;43.080;-81.378;2023-04-03T01:30:03;1.02;;;0.90;;
49444;SDS011;35323;43.080;-81.378;2023-04-03T01:32:31;1.30;;;0.90;;
49444;SDS011;35323;43.080;-81.378;2023-04-03T01:34:58;0.70;;;0.70;;
49444;SDS011;35323;43.080;-81.378;2023-04-03T01:37:26;1.65;;;1.23;;
49444;SDS011;35323;43.080;-81.378;2023-04-03T01:39:53;1.50;;;0.80;;
49444;SDS011;35323;43.080;-81.378;2023-04-03T01:42:22;3.00;;;0.80;;
49444;SDS011;35323;43.080;-81.378;2023-04-03T01:44:49;1.63;;;0.70;;
49444;SDS011;35323;43.080;-81.378;2023-04-03T01:47:21;1.17;;;0.70;;
49444;SDS011;35323;43.080;-81.378;2023-04-03T01:49:49;1.30;;;0.80;;
49444;SDS011;35323;43.080;-81.378;2023-04-03T01:52:16;1.17;;;0.70;;
49444;SDS011;35323;43.080;-81.378;2023-04-03T01:54:45;2.10;;;0.82;;
49444;SDS011;35323;43.080;-81.378;2023-04-03T01:57:12;0.60;;;0.60;;
49444;SDS011;35323;43.080;-81.378;2023-04-03T01:59:42;0.73;;;0.60;;
49444;SDS011;35323;43.080;-81.378;2023-04-03T02:02:09;0.68;;;0.68;;
49444;SDS011;35323;43.080;-81.378;2023-04-03T02:04:39;0.98;;;0.95;;
49444;SDS011;35323;43.080;-81.378;2023-04-03T02:07:07;1.10;;;1.10;;
49444;SDS011;35323;43.080;-81.378;2023-04-03T02:09:34;1.88;;;1.20;;
49444;SDS011;35323;43.080;-81.378;2023-04-03T02:12:02;0.93;;;0.88;;
49444;SDS011;35323;43.080;-81.378;2023-04-03T02:14:29;1.02;;;0.90;;
49444;SDS011;35323;43.080;-81.378;2023-04-03T02:16:57;0.88;;;0.80;;
49444;SDS011;35323;43.080;-81.378;2023-04-03T02:19:25;1.00;;;0.65;;
49444;SDS011;35323;43.080;-81.378;2023-04-03T02:21:52;0.63;;;0.63;;
49444;SDS011;35323;43.080;-81.378;2023-04-03T02:24:20;0.90;;;0.60;;
49444;SDS011;35323;43.080;-81.378;2023-04-03T02:26:47;0.90;;;0.90;;
49444;SDS011;35323;43.080;-81.378;2023-04-03T02:29:18;2.00;;;0.85;;
49444;SDS011;35323;43.080;-81.378;2023-04-03T02:31:45;2.15;;;1.02;;
49444;SDS011;35323;43.080;-81.378;2023-04-03T02:34:13;0.60;;;0.60;;
49444;SDS011;35323;43.080;-81.378;2023-04-03T02:36:40;0.60;;;0.60;;
49444;SDS011;35323;43.080;-81.378;2023-04-03T02:39:08;0.63;;;0.63;;
49444;SDS011;35323;43.080;-81.378;2023-04-03T02:41:36;0.70;;;0.70;;
49444;SDS011;35323;43.080;-81.378;2023-04-03T02:44:04;5.75;;;3.55;;
49444;SDS011;35323;43.080;-81.378;2023-04-03T02:46:32;1.10;;;1.10;;
49444;SDS011;35323;43.080;-81.378;2023-04-03T02:49:00;2.50;;;1.05;;
49444;SDS011;35323;43.080;-81.378;2023-04-03T02:51:27;1.77;;;1.52;;
49444;SDS011;35323;43.080;-81.378;2023-04-03T02:53:55;1.65;;;0.90;;
49444;SDS011;35323;43.080;-81.378;2023-04-03T02:56:22;1.65;;;1.02;;
49444;SDS011;35323;43.080;-81.378;2023-04-03T02:58:50;2.65;;;0.60;;
49444;SDS011;35323;43.080;-81.378;2023-04-03T03:01:18;1.17;;;0.63;;
49444;SDS011;35323;43.080;-81.378;2023-04-03T03:03:46;0.90;;;0.80;;
49444;SDS011;35323;43.080;-81.378;2023-04-03T03:06:15;0.98;;;0.95;;
49444;SDS011;35323;43.080;-81.378;2023-04-03T03:08:44;2.50;;;2.30;;
49444;SDS011;35323;43.080;-81.378;2023-04-03T03:11:12;1.00;;;0.70;;
49444;SDS011;35323;43.080;-81.378;2023-04-03T03:13:41;1.48;;;0.80;;
49444;SDS011;35323;43.080;-81.378;2023-04-03T03:16:08;2.53;;;0.77;;
49444;SDS011;35323;43.080;-81.378;2023-04-03T03:18:36;1.17;;;1.05;;
49444;SDS011;35323;43.080;-81.378;2023-04-03T03:21:04;0.60;;;0.60;;
49444;SDS011;35323;43.080;-81.378;2023-04-03T03:23:32;0.80;;;0.80;;
49444;SDS011;35323;43.080;-81.378;2023-04-03T03:26:00;0.52;;;0.50;;
49444;SDS011;35323;43.080;-81.378;2023-04-03T03:28:28;3.03;;;1.00;;
49444;SDS011;35323;43.080;-81.378;2023-04-03T03:30:56;1.30;;;1.05;;
49444;SDS011;35323;43.080;-81.378;2023-04-03T03:33:24;1.70;;;0.95;;
49444;SDS011;35323;43.080;-81.378;2023-04-03T03:35:53;1.50;;;0.90;;
49444;SDS011;35323;43.080;-81.378;2023-04-03T03:38:21;0.80;;;0.80;;
49444;SDS011;35323;43.080;-81.378;2023-04-03T03:40:49;1.95;;;0.70;;
49444;SDS011;35323;43.080;-81.378;2023-04-03T03:43:17;1.67;;;1.48;;
49444;SDS011;35323;43.080;-81.378;2023-04-03T03:45:46;3.47;;;2.50;;
49444;SDS011;35323;43.080;-81.378;2023-04-03T03:48:17;3.80;;;0.90;;
49444;SDS011;35323;43.080;-81.378;2023-04-03T03:50:44;1.40;;;1.30;;
49444;SDS011;35323;43.080;-81.378;2023-04-03T03:53:12;1.67;;;1.05;;
49444;SDS011;35323;43.080;-81.378;2023-04-03T03:55:40;1.58;;;0.70;;
49444;SDS011;35323;43.080;-81.378;2023-04-03T03:58:08;3.33;;;1.02;;
49444;SDS011;35323;43.080;-81.378;2023-04-03T04:00:38;0.73;;;0.73;;
49444;SDS011;35323;43.080;-81.378;2023-04-03T04:03:06;1.30;;;1.00;;
49444;SDS011;35323;43.080;-81.378;2023-04-03T04:05:34;0.70;;;0.70;;
49444;SDS011;35323;43.080;-81.378;2023-04-03T04:08:02;2.55;;;0.80;;
49444;SDS011;35323;43.080;-81.378;2023-04-03T04:10:29;1.20;;;0.68;;
49444;SDS011;35323;43.080;-81.378;2023-04-03T04:12:57;0.65;;;0.65;;
49444;SDS011;35323;43.080;-81.378;2023-04-03T04:15:25;0.60;;;0.60;;
49444;SDS011;35323;43.080;-81.378;2023-04-03T04:17:53;1.55;;;1.17;;
49444;SDS011;35323;43.080;-81.378;2023-04-03T04:20:21;2.00;;;1.00;;
49444;SDS011;35323;43.080;-81.378;2023-04-03T04:22:49;0.95;;;0.80;;
49444;SDS011;35323;43.080;-81.378;2023-04-03T04:25:16;0.80;;;0.80;;
49444;SDS011;35323;43.080;-81.378;2023-04-03T04:27:44;1.58;;;1.48;;
49444;SDS011;35323;43.080;-81.378;2023-04-03T04:30:12;1.65;;;1.17;;
49444;SDS011;35323;43.080;-81.378;2023-04-03T04:32:40;0.70;;;0.70;;
49444;SDS011;35323;43.080;-81.378;2023-04-03T04:35:08;0.80;;;0.80;;
49444;SDS011;35323;43.080;-81.378;2023-04-03T04:37:35;5.50;;;1.00;;
49444;SDS011;35323;43.080;-81.378;2023-04-03T04:40:03;1.52;;;1.42;;
49444;SDS011;35323;43.080;-81.378;2023-04-03T04:42:31;0.60;;;0.60;;
49444;SDS011;35323;43.080;-81.378;2023-04-03T04:44:58;2.15;;;1.95;;
49444;SDS011;35323;43.080;-81.378;2023-04-03T04:47:27;1.10;;;1.00;;
49444;SDS011;35323;43.080;-81.378;2023-04-03T04:49:55;2.35;;;0.90;;
49444;SDS011;35323;43.080;-81.378;2023-04-03T04:52:23;1.23;;;0.68;;
49444;SDS011;35323;43.080;-81.378;2023-04-03T04:54:50;4.97;;;1.88;;
49444;SDS011;35323;43.080;-81.378;2023-04-03T04:57:18;2.38;;;2.17;;
49444;SDS011;35323;43.080;-81.378;2023-04-03T04:59:46;5.03;;;1.05;;
49444;SDS011;35323;43.080;-81.378;2023-04-03T05:02:13;4.10;;;1.10;;
49444;SDS011;35323;43.080;-81.378;2023-04-03T05:04:41;1.70;;;1.60;;
49444;SDS011;35323;43.080;-81.378;2023-04-03T05:07:10;0.98;;;0.82;;
49444;SDS011;35323;43.080;-81.378;2023-04-03T05:09:38;1.08;;;1.00;;
49444;SDS011;35323;43.080;-81.378;2023-04-03T05:12:08;1.40;;;1.20;;
49444;SDS011;35323;43.080;-81.378;2023-04-03T05:14:36;5.18;;;1.05;;
49444;SDS011;35323;43.080;-81.378;2023-04-03T05:17:03;1.70;;;1.27;;
49444;SDS011;35323;43.080;-81.378;2023-04-03T05:19:31;1.52;;;1.20;;
49444;SDS011;35323;43.080;-81.378;2023-04-03T05:21:58;1.77;;;1.25;;
49444;SDS011;35323;43.080;-81.378;2023-04-03T05:24:26;0.70;;;0.70;;
49444;SDS011;35323;43.080;-81.378;2023-04-03T05:26:54;2.03;;;0.85;;
49444;SDS011;35323;43.080;-81.378;2023-04-03T05:29:21;1.23;;;1.00;;
49444;SDS011;35323;43.080;-81.378;2023-04-03T05:31:49;0.82;;;0.82;;
49444;SDS011;35323;43.080;-81.378;2023-04-03T05:34:18;0.93;;;0.80;;
49444;SDS011;35323;43.080;-81.378;2023-04-03T05:36:45;1.10;;;0.77;;
49444;SDS011;35323;43.080;-81.378;2023-04-03T05:39:13;0.80;;;0.80;;
49444;SDS011;35323;43.080;-81.378;2023-04-03T05:41:41;1.92;;;0.88;;
49444;SDS011;35323;43.080;-81.378;2023-04-03T05:44:08;0.90;;;0.90;;
49444;SDS011;35323;43.080;-81.378;2023-04-03T05:46:36;1.80;;;1.27;;
49444;SDS011;35323;43.080;-81.378;2023-04-03T05:49:05;1.48;;;1.20;;
49444;SDS011;35323;43.080;-81.378;2023-04-03T05:51:34;1.83;;;1.00;;
49444;SDS011;35323;43.080;-81.378;2023-04-03T05:54:08;1.33;;;1.27;;
49444;SDS011;35323;43.080;-81.378;2023-04-03T05:56:36;3.92;;;0.82;;
49444;SDS011;35323;43.080;-81.378;2023-04-03T05:59:04;4.30;;;1.10;;
49444;SDS011;35323;43.080;-81.378;2023-04-03T06:01:31;1.13;;;1.00;;
49444;SDS011;35323;43.080;-81.378;2023-04-03T06:03:59;3.13;;;1.67;;
49444;SDS011;35323;43.080;-81.378;2023-04-03T06:06:42;1.15;;;1.13;;
49444;SDS011;35323;43.080;-81.378;2023-04-03T06:09:10;2.00;;;1.27;;
49444;SDS011;35323;43.080;-81.378;2023-04-03T06:11:37;1.33;;;1.20;;
49444;SDS011;35323;43.080;-81.378;2023-04-03T06:14:09;0.85;;;0.85;;
49444;SDS011;35323;43.080;-81.378;2023-04-03T06:16:37;0.88;;;0.88;;
49444;SDS011;35323;43.080;-81.378;2023-04-03T06:19:09;1.92;;;1.10;;
49444;SDS011;35323;43.080;-81.378;2023-04-03T06:21:36;1.20;;;1.10;;
49444;SDS011;35323;43.080;-81.378;2023-04-03T06:24:04;1.35;;;1.25;;
49444;SDS011;35323;43.080;-81.378;2023-04-03T06:26:33;0.60;;;0.60;;
49444;SDS011;35323;43.080;-81.378;2023-04-03T06:29:00;0.82;;;0.82;;
49444;SDS011;35323;43.080;-81.378;2023-04-03T06:31:29;1.42;;;1.10;;
49444;SDS011;35323;43.080;-81.378;2023-04-03T06:33:57;0.80;;;0.80;;
49444;SDS011;35323;43.080;-81.378;2023-04-03T06:36:25;1.33;;;1.20;;
49444;SDS011;35323;43.080;-81.378;2023-04-03T06:38:52;1.55;;;1.45;;
49444;SDS011;35323;43.080;-81.378;2023-04-03T06:41:20;1.35;;;1.13;;
49444;SDS011;35323;43.080;-81.378;2023-04-03T06:43:48;4.45;;;1.50;;
49444;SDS011;35323;43.080;-81.378;2023-04-03T06:46:17;1.02;;;0.90;;
49444;SDS011;35323;43.080;-81.378;2023-04-03T06:48:45;3.17;;;1.27;;
49444;SDS011;35323;43.080;-81.378;2023-04-03T06:51:25;1.38;;;1.20;;
49444;SDS011;35323;43.080;-81.378;2023-04-03T06:53:55;1.42;;;1.30;;
49444;SDS011;35323;43.080;-81.378;2023-04-03T06:56:22;1.40;;;1.30;;
49444;SDS011;35323;43.080;-81.378;2023-04-03T06:58:50;0.60;;;0.60;;
49444;SDS011;35323;43.080;-81.378;2023-04-03T07:01:18;4.38;;;1.17;;
49444;SDS011;35323;43.080;-81.378;2023-04-03T07:03:49;1.98;;;1.38;;
49444;SDS011;35323;43.080;-81.378;2023-04-03T07:06:18;2.38;;;1.30;;
49444;SDS011;35323;43.080;-81.378;2023-04-03T07:08:46;1.95;;;1.48;;
49444;SDS011;35323;43.080;-81.378;2023-04-03T07:11:15;1.98;;;1.88;;
49444;SDS011;35323;43.080;-81.378;2023-04-03T07:13:43;2.92;;;2.50;;
49444;SDS011;35323;43.080;-81.378;2023-04-03T07:16:11;0.95;;;0.95;;
49444;SDS011;35323;43.080;-81.378;2023-04-03T07:18:38;1.30;;;1.20;;
49444;SDS011;35323;43.080;-81.378;2023-04-03T07:21:06;1.65;;;1.33;;
49444;SDS011;35323;43.080;-81.378;2023-04-03T07:23:34;1.70;;;1.60;;
49444;SDS011;35323;43.080;-81.378;2023-04-03T07:26:01;1.13;;;1.00;;
49444;SDS011;35323;43.080;-81.378;2023-04-03T07:28:29;2.67;;;1.60;;
49444;SDS011;35323;43.080;-81.378;2023-04-03T07:31:01;2.00;;;1.30;;
49444;SDS011;35323;43.080;-81.378;2023-04-03T07:33:29;2.45;;;1.23;;
49444;SDS011;35323;43.080;-81.378;2023-04-03T07:35:58;1.92;;;1.17;;
49444;SDS011;35323;43.080;-81.378;2023-04-03T07:38:27;1.90;;;1.40;;
49444;SDS011;35323;43.080;-81.378;2023-04-03T07:40:55;1.75;;;1.65;;
49444;SDS011;35323;43.080;-81.378;2023-04-03T07:43:22;1.38;;;1.30;;
49444;SDS011;35323;43.080;-81.378;2023-04-03T07:45:52;1.35;;;1.08;;
49444;SDS011;35323;43.080;-81.378;2023-04-03T07:48:22;2.55;;;1.17;;
49444;SDS011;35323;43.080;-81.378;2023-04-03T07:50:50;1.63;;;1.52;;
49444;SDS011;35323;43.080;-81.378;2023-04-03T07:53:18;5.05;;;1.23;;
49444;SDS011;35323;43.080;-81.378;2023-04-03T07:55:47;2.53;;;1.70;;
49444;SDS011;35323;43.080;-81.378;2023-04-03T07:58:16;2.53;;;1.42;;
49444;SDS011;35323;43.080;-81.378;2023-04-03T08:00:44;2.40;;;2.08;;
49444;SDS011;35323;43.080;-81.378;2023-04-03T08:03:11;3.67;;;2.65;;
49444;SDS011;35323;43.080;-81.378;2023-04-03T08:05:40;5.20;;;1.80;;
49444;SDS011;35323;43.080;-81.378;2023-04-03T08:08:09;2.72;;;1.83;;
49444;SDS011;35323;43.080;-81.378;2023-04-03T08:10:37;2.35;;;1.63;;
49444;SDS011;35323;43.080;-81.378;2023-04-03T08:13:05;5.03;;;3.28;;
49444;SDS011;35323;43.080;-81.378;2023-04-03T08:15:33;1.80;;;1.50;;
49444;SDS011;35323;43.080;-81.378;2023-04-03T08:18:03;2.60;;;2.22;;
49444;SDS011;35323;43.080;-81.378;2023-04-03T08:20:31;2.85;;;1.80;;
49444;SDS011;35323;43.080;-81.378;2023-04-03T08:22:58;1.70;;;1.60;;
49444;SDS011;35323;43.080;-81.378;2023-04-03T08:25:26;4.13;;;2.70;;
49444;SDS011;35323;43.080;-81.378;2023-04-03T08:27:54;2.00;;;1.77;;
49444;SDS011;35323;43.080;-81.378;2023-04-03T08:30:21;3.10;;;2.10;;
49444;SDS011;35323;43.080;-81.378;2023-04-03T08:32:49;3.42;;;2.40;;
49444;SDS011;35323;43.080;-81.378;2023-04-03T08:35:18;3.88;;;2.45;;
49444;SDS011;35323;43.080;-81.378;2023-04-03T08:37:48;2.42;;;2.22;;
49444;SDS011;35323;43.080;-81.378;2023-04-03T08:40:16;3.35;;;2.47;;
49444;SDS011;35323;43.080;-81.378;2023-04-03T08:43:04;4.90;;;2.60;;
49444;SDS011;35323;43.080;-81.378;2023-04-03T08:48:06;3.30;;;2.88;;
49444;SDS011;35323;43.080;-81.378;2023-04-03T08:50:41;4.50;;;3.40;;
49444;SDS011;35323;43.080;-81.378;2023-04-03T08:53:15;4.90;;;3.35;;
49444;SDS011;35323;43.080;-81.378;2023-04-03T08:55:44;4.20;;;2.10;;
49444;SDS011;35323;43.080;-81.378;2023-04-03T08:58:15;4.03;;;2.60;;
49444;SDS011;35323;43.080;-81.378;2023-04-03T09:03:12;4.13;;;2.40;;
49444;SDS011;35323;43.080;-81.378;2023-04-03T09:05:49;3.88;;;3.22;;
49444;SDS011;35323;43.080;-81.378;2023-04-03T09:08:23;3.80;;;3.20;;
49444;SDS011;35323;43.080;-81.378;2023-04-03T09:10:58;3.58;;;2.90;;
49444;SDS011;35323;43.080;-81.378;2023-04-03T09:13:30;4.68;;;2.50;;
49444;SDS011;35323;43.080;-81.378;2023-04-03T09:16:01;3.03;;;2.47;;
49444;SDS011;35323;43.080;-81.378;2023-04-03T09:18:33;10.48;;;5.00;;
49444;SDS011;35323;43.080;-81.378;2023-04-03T09:21:08;5.07;;;3.83;;
49444;SDS011;35323;43.080;-81.378;2023-04-03T09:23:43;6.75;;;4.25;;
49444;SDS011;35323;43.080;-81.378;2023-04-03T09:26:24;5.55;;;4.35;;
49444;SDS011;35323;43.080;-81.378;2023-04-03T09:29:00;3.30;;;2.97;;
49444;SDS011;35323;43.080;-81.378;2023-04-03T09:31:36;4.28;;;2.80;;
49444;SDS011;35323;43.080;-81.378;2023-04-03T09:34:28;4.68;;;3.03;;
49444;SDS011;35323;43.080;-81.378;2023-04-03T09:36:55;4.80;;;3.20;;
49444;SDS011;35323;43.080;-81.378;2023-04-03T09:39:24;5.38;;;2.65;;
49444;SDS011;35323;43.080;-81.378;2023-04-03T09:44:24;7.82;;;4.18;;
49444;SDS011;35323;43.080;-81.378;2023-04-03T09:46:52;5.10;;;3.55;;
49444;SDS011;35323;43.080;-81.378;2023-04-03T09:49:20;5.25;;;4.07;;
49444;SDS011;35323;43.080;-81.378;2023-04-03T09:51:48;5.00;;;3.05;;
49444;SDS011;35323;43.080;-81.378;2023-04-03T09:57:11;4.75;;;3.55;;
49444;SDS011;35323;43.080;-81.378;2023-04-03T09:59:58;6.18;;;4.28;;
49444;SDS011;35323;43.080;-81.378;2023-04-03T10:05:00;8.30;;;4.47;;
49444;SDS011;35323;43.080;-81.378;2023-04-03T10:07:35;5.05;;;3.38;;
49444;SDS011;35323;43.080;-81.378;2023-04-03T10:10:18;6.05;;;3.75;;
49444;SDS011;35323;43.080;-81.378;2023-04-03T10:12:47;3.97;;;2.97;;
49444;SDS011;35323;43.080;-81.378;2023-04-03T10:15:16;3.70;;;2.88;;
49444;SDS011;35323;43.080;-81.378;2023-04-03T10:18:00;5.32;;;3.83;;
49444;SDS011;35323;43.080;-81.378;2023-04-03T10:20:43;4.30;;;3.42;;
49444;SDS011;35323;43.080;-81.378;2023-04-03T10:23:17;4.47;;;4.03;;
49444;SDS011;35323;43.080;-81.378;2023-04-03T10:28:26;7.50;;;3.50;;
49444;SDS011;35323;43.080;-81.378;2023-04-03T10:33:55;6.57;;;3.72;;
49444;SDS011;35323;43.080;-81.378;2023-04-03T10:36:33;5.93;;;4.10;;
49444;SDS011;35323;43.080;-81.378;2023-04-03T10:39:16;4.78;;;3.15;;
49444;SDS011;35323;43.080;-81.378;2023-04-03T10:44:48;8.80;;;5.32;;
49444;SDS011;35323;43.080;-81.378;2023-04-03T10:47:22;4.93;;;4.05;;
49444;SDS011;35323;43.080;-81.378;2023-04-03T10:57:59;5.97;;;4.10;;
49444;SDS011;35323;43.080;-81.378;2023-04-03T11:00:40;4.93;;;4.13;;
49444;SDS011;35323;43.080;-81.378;2023-04-03T11:03:51;6.28;;;5.40;;
49444;SDS011;35323;43.080;-81.378;2023-04-03T11:05:59;5.75;;;4.15;;
49444;SDS011;35323;43.080;-81.378;2023-04-03T11:08:32;5.97;;;3.60;;
49444;SDS011;35323;43.080;-81.378;2023-04-03T11:11:08;5.80;;;3.70;;
49444;SDS011;35323;43.080;-81.378;2023-04-03T11:13:48;5.90;;;3.50;;
49444;SDS011;35323;43.080;-81.378;2023-04-03T11:16:24;5.60;;;4.40;;
49444;SDS011;35323;43.080;-81.378;2023-04-03T11:19:03;4.53;;;3.80;;
49444;SDS011;35323;43.080;-81.378;2023-04-03T11:21:33;3.88;;;3.55;;
49444;SDS011;35323;43.080;-81.378;2023-04-03T11:24:02;5.70;;;3.85;;
49444;SDS011;35323;43.080;-81.378;2023-04-03T11:26:32;6.28;;;3.58;;
49444;SDS011;35323;43.080;-81.378;2023-04-03T11:29:07;4.05;;;3.65;;
49444;SDS011;35323;43.080;-81.378;2023-04-03T11:34:19;4.80;;;3.58;;
49444;SDS011;35323;43.080;-81.378;2023-04-03T11:36:52;5.35;;;4.65;;
49444;SDS011;35323;43.080;-81.378;2023-04-03T11:39:34;4.57;;;3.72;;
49444;SDS011;35323;43.080;-81.378;2023-04-03T11:42:35;6.22;;;4.90;;
49444;SDS011;35323;43.080;-81.378;2023-04-03T11:52:58;6.38;;;4.22;;
49444;SDS011;35323;43.080;-81.378;2023-04-03T12:16:26;4.30;;;3.10;;
49444;SDS011;35323;43.080;-81.378;2023-04-03T12:29:21;8.67;;;4.93;;
49444;SDS011;35323;43.080;-81.378;2023-04-03T12:32:08;5.22;;;4.35;;
49444;SDS011;35323;43.080;-81.378;2023-04-03T12:34:55;4.53;;;3.22;;
49444;SDS011;35323;43.080;-81.378;2023-04-03T12:45:19;5.25;;;3.53;;
49444;SDS011;35323;43.080;-81.378;2023-04-03T12:47:51;4.20;;;2.88;;
49444;SDS011;35323;43.080;-81.378;2023-04-03T12:50:38;6.50;;;3.72;;
49444;SDS011;35323;43.080;-81.378;2023-04-03T12:53:15;5.78;;;5.07;;
49444;SDS011;35323;43.080;-81.378;2023-04-03T12:55:44;4.80;;;3.50;;
49444;SDS011;35323;43.080;-81.378;2023-04-03T13:01:12;3.75;;;2.92;;
49444;SDS011;35323;43.080;-81.378;2023-04-03T13:03:43;4.00;;;3.22;;
49444;SDS011;35323;43.080;-81.378;2023-04-03T13:06:16;4.43;;;3.72;;
49444;SDS011;35323;43.080;-81.378;2023-04-03T13:08:48;3.63;;;3.15;;
49444;SDS011;35323;43.080;-81.378;2023-04-03T13:11:16;5.75;;;3.78;;
49444;SDS011;35323;43.080;-81.378;2023-04-03T13:16:42;3.50;;;2.70;;
49444;SDS011;35323;43.080;-81.378;2023-04-03T13:19:19;7.93;;;2.92;;
49444;SDS011;35323;43.080;-81.378;2023-04-03T13:21:47;4.68;;;3.28;;
49444;SDS011;35323;43.080;-81.378;2023-04-03T13:24:16;3.67;;;3.33;;
49444;SDS011;35323;43.080;-81.378;2023-04-03T13:26:46;5.88;;;3.90;;
49444;SDS011;35323;43.080;-81.378;2023-04-03T13:29:20;4.30;;;3.45;;
49444;SDS011;35323;43.080;-81.378;2023-04-03T13:31:57;6.25;;;5.20;;
49444;SDS011;35323;43.080;-81.378;2023-04-03T13:34:26;3.85;;;3.25;;
49444;SDS011;35323;43.080;-81.378;2023-04-03T13:36:58;4.60;;;4.13;;
49444;SDS011;35323;43.080;-81.378;2023-04-03T13:41:55;2.55;;;2.25;;
49444;SDS011;35323;43.080;-81.378;2023-04-03T13:46:54;4.55;;;3.67;;
49444;SDS011;35323;43.080;-81.378;2023-04-03T13:51:55;4.68;;;3.72;;
49444;SDS011;35323;43.080;-81.378;2023-04-03T13:54:37;3.33;;;2.67;;
49444;SDS011;35323;43.080;-81.378;2023-04-03T13:57:12;4.30;;;3.20;;
49444;SDS011;35323;43.080;-81.378;2023-04-03T13:59:40;3.42;;;2.53;;
49444;SDS011;35323;43.080;-81.378;2023-04-03T14:04:46;4.30;;;3.03;;
49444;SDS011;35323;43.080;-81.378;2023-04-03T14:07:15;3.90;;;2.67;;
49444;SDS011;35323;43.080;-81.378;2023-04-03T14:09:43;5.45;;;3.15;;
49444;SDS011;35323;43.080;-81.378;2023-04-03T14:12:33;3.53;;;3.17;;
49444;SDS011;35323;43.080;-81.378;2023-04-03T14:15:00;2.63;;;2.35;;
49444;SDS011;35323;43.080;-81.378;2023-04-03T14:17:28;4.78;;;3.53;;
49444;SDS011;35323;43.080;-81.378;2023-04-03T14:19:57;6.57;;;3.55;;
49444;SDS011;35323;43.080;-81.378;2023-04-03T14:22:26;5.60;;;3.20;;
49444;SDS011;35323;43.080;-81.378;2023-04-03T14:24:58;3.35;;;3.05;;
49444;SDS011;35323;43.080;-81.378;2023-04-03T14:27:31;4.32;;;2.90;;
49444;SDS011;35323;43.080;-81.378;2023-04-03T14:30:00;4.22;;;3.25;;
49444;SDS011;35323;43.080;-81.378;2023-04-03T14:32:30;6.97;;;3.28;;
49444;SDS011;35323;43.080;-81.378;2023-04-03T14:34:58;3.25;;;2.75;;
49444;SDS011;35323;43.080;-81.378;2023-04-03T14:37:26;12.45;;;4.30;;
49444;SDS011;35323;43.080;-81.378;2023-04-03T14:39:56;5.22;;;3.97;;
49444;SDS011;35323;43.080;-81.378;2023-04-03T14:42:29;3.47;;;2.35;;
49444;SDS011;35323;43.080;-81.378;2023-04-03T14:44:58;4.95;;;3.35;;
49444;SDS011;35323;43.080;-81.378;2023-04-03T14:47:27;4.47;;;2.92;;
49444;SDS011;35323;43.080;-81.378;2023-04-03T14:50:01;3.25;;;2.63;;
49444;SDS011;35323;43.080;-81.378;2023-04-03T14:52:30;3.80;;;2.30;;
49444;SDS011;35323;43.080;-81.378;2023-04-03T14:54:58;3.25;;;2.20;;
49444;SDS011;35323;43.080;-81.378;2023-04-03T14:57:27;4.70;;;3.42;;
49444;SDS011;35323;43.080;-81.378;2023-04-03T14:59:56;2.92;;;2.60;;
49444;SDS011;35323;43.080;-81.378;2023-04-03T15:02:28;4.15;;;3.72;;
49444;SDS011;35323;43.080;-81.378;2023-04-03T15:04:56;4.28;;;2.63;;
49444;SDS011;35323;43.080;-81.378;2023-04-03T15:07:25;17.88;;;4.65;;
49444;SDS011;35323;43.080;-81.378;2023-04-03T15:10:05;4.25;;;3.08;;
49444;SDS011;35323;43.080;-81.378;2023-04-03T15:12:37;2.40;;;2.10;;
49444;SDS011;35323;43.080;-81.378;2023-04-03T15:15:04;6.35;;;3.22;;
49444;SDS011;35323;43.080;-81.378;2023-04-03T15:17:32;4.35;;;2.83;;
49444;SDS011;35323;43.080;-81.378;2023-04-03T15:20:02;3.60;;;2.58;;
49444;SDS011;35323;43.080;-81.378;2023-04-03T15:22:30;3.03;;;2.47;;
49444;SDS011;35323;43.080;-81.378;2023-04-03T15:24:58;4.65;;;2.88;;
49444;SDS011;35323;43.080;-81.378;2023-04-03T15:27:25;4.78;;;2.97;;
49444;SDS011;35323;43.080;-81.378;2023-04-03T15:29:53;3.92;;;2.72;;
49444;SDS011;35323;43.080;-81.378;2023-04-03T15:32:21;2.80;;;2.20;;
49444;SDS011;35323;43.080;-81.378;2023-04-03T15:34:49;2.63;;;1.98;;
49444;SDS011;35323;43.080;-81.378;2023-04-03T15:37:20;3.28;;;2.33;;
49444;SDS011;35323;43.080;-81.378;2023-04-03T15:39:47;5.45;;;3.53;;
49444;SDS011;35323;43.080;-81.378;2023-04-03T15:42:15;3.88;;;2.35;;
49444;SDS011;35323;43.080;-81.378;2023-04-03T15:44:43;11.43;;;4.28;;
49444;SDS011;35323;43.080;-81.378;2023-04-03T15:47:10;1.73;;;1.60;;
49444;SDS011;35323;43.080;-81.378;2023-04-03T15:49:38;4.43;;;3.75;;
49444;SDS011;35323;43.080;-81.378;2023-04-03T15:52:06;5.35;;;2.35;;
49444;SDS011;35323;43.080;-81.378;2023-04-03T15:54:34;2.97;;;1.80;;
49444;SDS011;35323;43.080;-81.378;2023-04-03T15:57:01;5.47;;;3.38;;
49444;SDS011;35323;43.080;-81.378;2023-04-03T15:59:30;2.92;;;2.03;;
49444;SDS011;35323;43.080;-81.378;2023-04-03T16:01:59;2.00;;;1.38;;
49444;SDS011;35323;43.080;-81.378;2023-04-03T16:04:28;4.90;;;2.22;;
49444;SDS011;35323;43.080;-81.378;2023-04-03T16:06:56;3.80;;;2.08;;
49444;SDS011;35323;43.080;-81.378;2023-04-03T16:09:23;3.53;;;1.50;;
49444;SDS011;35323;43.080;-81.378;2023-04-03T16:11:51;1.88;;;1.75;;
49444;SDS011;35323;43.080;-81.378;2023-04-03T16:14:19;1.98;;;1.60;;
49444;SDS011;35323;43.080;-81.378;2023-04-03T16:16:47;3.85;;;3.10;;
49444;SDS011;35323;43.080;-81.378;2023-04-03T16:19:16;2.80;;;1.92;;